高松空港の過去48時間の天気

高松空港 (Takamatsu)

現在時刻: 1/23 13:18 JST (1/23 04:18 UTC) 以下の時間は現地時間です。

過去48時間のMETAR気象情報
時間 風向 風速(m/s) 視程 気温(℃) 湿度(%) 気圧(hPa) 天気現象
23 13:00 西北西 10 10km以上 4 87 1012 弱いしゅう雨 弱いしゅう雪
23 12:07 西 12 10km以上 7 61 1011
23 12:00 西 12 10km以上 7 61 1011
23 11:07 西 11 10km以上 8 66 1011
23 11:00 西 12 10km以上 7 70 1012
23 10:04 西 11 10km以上 8 66 1012
23 09:00 西 9 10km以上 8 71 1011
23 08:00 西 11 10km以上 7 81 1011 周辺でしゅう雨
23 07:29 西南西 9 10km以上 7 87 1011
23 07:00 西南西 7 10km以上 6 93 1010 周辺でしゅう雨
23 06:20 西南西 8 10km以上 6 87 1010
22 21:00 南西 4 10km以上 1 100 1012
22 20:24 西南西 6 7,000m 0 100 1012 もや
22 20:14 西南西 4 4,000m 0 100 1012 もや
22 20:00 西 4 3,000m 0 100 1012 もや
22 19:46 西南西 4 2,500m 0 100 1012 もや
22 19:41 西南西 4 1,000m 0 100 1012 もや
22 19:23 西 3 200m 0 100 1013
22 19:21 西 3 2,000m 0 100 1013 もや
22 19:00 西 4 7,000m 0 100 1012
22 18:00 南西 3 8,000m 1 100 1012
22 17:49 南西 3 5,000m 1 100 1011 もや
22 17:37 南西 2 4,000m 1 100 1011 もや
22 17:29 南西 2 3,000m 1 100 1011 弱い雨 弱い雪 もや
22 17:11 南西 2 2,000m 1 100 1012 弱い雪 もや
22 17:03 西南西 2 1,500m 1 100 1011 弱い雪 もや
22 16:50 西 3 800m 1 100 1012 弱い雪 霧
22 16:37 西 2 1,200m 0 100 1012 弱い雪 もや
22 16:23 北西 2 1,000m 0 100 1012 弱い雪
22 16:14 北北西 3 1,200m 1 100 1011 弱い雪
22 16:00 北北西 2 2,000m 1 100 1011 弱い雪
22 15:43 北北西 3 3,000m 1 100 1011 弱い雪 弱い雨 もや
22 15:22 4 4,000m 2 100 1011 弱い雪 弱い雨 もや
22 15:19 3 4,500m 2 100 1011 弱い雪 弱い雨 もや
22 15:00 北北東 3 8,000m 2 100 1010 弱い雪 弱い雨
22 14:00 東北東 3 8,000m 2 100 1010 弱い雪 弱い雨
22 13:00 2 8,000m 2 100 1011 弱い雪 弱い雨
22 12:00 南東 2 10km以上 2 100 1013 弱い雨 弱い雪
22 11:00 東南東 3 10km以上 4 93 1014 弱い雨 弱い雪
22 10:00 3 10km以上 5 93 1015 周辺でしゅう雨
22 09:00 東北東 3 10km以上 4 93 1015 弱い雨
22 08:00 2 10km以上 4 93 1016 周辺でしゅう雨
22 07:00 南東 2 10km以上 3 87 1015
22 06:20 南東 2 10km以上 3 87 1016
RJOT 230400Z 29019KT 9999 -SHRASN FEW008 SCT020 BKN030 04/02 Q1012
RJOT 230307Z 27023G33KT 230V300 9999 FEW020 BKN040 07/00 Q1011 RMK 1CU020 6CU040 A2987
RJOT 230300Z 26024KT 9999 FEW020 BKN040 07/M00 Q1011
RJOT 230207Z 26022G32KT 9999 FEW025 BKN040 08/02 Q1011 RMK 1CU025 5CU040 A2988
RJOT 230200Z 26023KT 9999 FEW025 BKN040 07/02 Q1012
RJOT 230104Z 26022G32KT 9999 FEW025 SCT040 08/02 Q1012 RMK 1CU025 3CU040 A2989
RJOT 230000Z 26017G27KT 9999 FEW020 SCT035 08/03 Q1011
RJOT 222300Z 26021G34KT 9999 VCSH FEW015 SCT030 BKN050 07/04 Q1011
RJOT 222229Z 25017G27KT 9999 FEW015 SCT030 BKN050 07/05 Q1011 RMK 1CU015 3CU030 5SC050 A2986
RJOT 222200Z 25014KT 9999 VCSH FEW015 SCT030 BKN050 06/05 Q1010
RJOT 222120Z 25015KT 9999 FEW015 SCT035 BKN050 06/04 Q1010 RMK 1CU015 4CU035 6SC050 A2984
RJOT 221200Z 23007KT 9999 FEW002 SCT020 01/01 Q1012
RJOT 221124Z 25011KT 7000 BR FEW002 00/00 Q1012 RMK 1ST002 A2990
RJOT 221114Z 25008KT 4000 BR FEW002 M00/M00 Q1012 RMK 1ST002 A2990
RJOT 221100Z 28007KT 3000 BR FEW001 SCT003 00/00 Q1012
RJOT 221046Z 25007KT 2500 BR FEW000 SCT002 BKN003 00/00 Q1012 RMK 1ST000 3ST002 5ST003 A2991
RJOT 221041Z 25007KT 1000 R26///// BR FEW000 SCT002 BKN003 00/00 Q1012 RMK 1ST000 3ST002 5ST003 A2991
RJOT 221023Z 26006KT 0200 R26///// FG FEW000 SCT001 BKN003 00/00 Q1013 RMK 1ST000 3ST001 5ST003 A2991
RJOT 221021Z 26006KT 2000 BR FEW000 SCT003 BKN005 M00/M00 Q1013 RMK 1ST000 3ST003 5ST005 A2991
RJOT 221000Z 26007KT 7000 FEW003 M00/M00 Q1012
RJOT 220900Z 23005KT 8000 FEW003 01/01 Q1012
RJOT 220849Z 23005KT 5000 BR FEW001 SCT010 01/01 Q1011 RMK 1ST001 3ST010 A2988
RJOT 220837Z 23003KT 4000 BR FEW001 SCT010 BKN035 01/01 Q1011 RMK 1ST001 3ST010 5CU035 A2988
RJOT 220829Z 22003KT 3000 -RASN BR FEW001 SCT005 BKN010 01/01 Q1011 RMK 1ST001 3ST005 5ST010 A2988
RJOT 220811Z 23004KT 2000 -SN BR FEW001 SCT002 BKN004 01/01 Q1012 RMK 1ST001 3ST002 5ST004 A2988 4000N
RJOT 220803Z 24004KT 1500 R26///// -SN BR FEW000 SCT001 BKN003 01/01 Q1011 RMK 1ST000 3ST001 5ST003 A2988 3000N
RJOT 220750Z 26005KT 0800 R26///// -SN FG FEW000 SCT001 BKN003 01/01 Q1012 RMK 1ST000 3ST001 5ST003 A2990
RJOT 220737Z 27004KT 1200 R26///// -SN BR FEW000 SCT001 BKN003 00/00 Q1012 RMK 1ST000 3ST001 5ST003 A2989
RJOT 220723Z 32003KT 290V360 1000 R26///// -SN FEW000 SCT001 BKN002 00/00 Q1012 RMK 1ST000 3ST001 5ST002 A2989
RJOT 220714Z 33005KT 1200 R26///// -SN FEW000 SCT001 BKN002 01/01 Q1011 RMK 1ST000 3ST001 5ST002 A2988
RJOT 220700Z 34004KT 2000 -SN FEW001 SCT002 BKN003 01/01 Q1011
RJOT 220643Z 34006KT 3000 -SNRA BR FEW001 SCT002 BKN005 01/01 Q1011 RMK 1ST001 3ST002 5ST005 A2987
RJOT 220622Z 36007KT 4000 -SNRA BR FEW001 SCT002 BKN005 02/02 Q1011 RMK 1ST001 3ST002 5ST005 A2986
RJOT 220619Z 01006KT 4500 -SNRA BR FEW002 SCT005 BKN008 02/02 Q1011 RMK 1ST002 3ST005 5ST008 A2986
RJOT 220600Z 03006KT 8000 -SNRA FEW002 SCT005 BKN008 02/02 Q1010
RJOT 220500Z 06006KT 8000 -SNRA FEW002 SCT005 BKN015 02/02 Q1010
RJOT 220400Z 10003KT 8000 -SNRA FEW005 SCT010 BKN015 02/02 Q1011
RJOT 220300Z 14003KT 040V220 9999 -RASN FEW005 SCT010 BKN015 02/02 Q1013
RJOT 220200Z 11006KT 080V150 9999 -RASN FEW005 SCT015 BKN035 04/03 Q1014
RJOT 220100Z 08005KT 050V120 9999 VCSH FEW010 SCT030 BKN045 05/04 Q1015
RJOT 220000Z 07005KT 9999 -RA FEW020 SCT050 BKN080 04/03 Q1015
RJOT 212300Z 09004KT 9999 VCSH FEW020 SCT050 BKN080 04/03 Q1016
RJOT 212200Z 14004KT 9999 FEW020 SCT050 BKN080 03/01 Q1015
RJOT 212120Z 13003KT 080V160 9999 FEW020 SCT050 BKN100 03/01 Q1016 RMK 1CU020 3SC050 6AC100 A3001